Time;durP1;ratioP1;P1;durP2;ratioP2;P2;SDS_P1;SDS_P2;PMS_P1;PMS_P2;Temp;Humidity;BMP_temperature;BMP_pressure;BME280_temperature;BME280_humidity;BME280_pressure;Samples;Min_cycle;Max_cycle;Signal;HPM_P1;HPM_P2
2022/05/14 00:00:22;;;;;;;;;;;;;;;11.12;68.32;101321.16;5012501;28;19909;-84
2022/05/14 00:02:47;;;;;;;;;;;;;;;11.09;67.03;101329.91;4995988;28;20387;-84
2022/05/14 00:05:12;;;;;;;;;;;;;;;11.11;67.44;101337.72;5012841;28;19909;-84
2022/05/14 00:07:38;;;;;;;;;;;;;;;11.11;68.43;101337.72;5012370;28;19920;-84
2022/05/14 00:10:04;;;;;;;;;;;;;;;11.12;68.50;101329.84;4996391;28;20369;-84
2022/05/14 00:15:13;;;;;;;;;;;;;;;11.10;67.73;101322.94;5013163;28;19963;-84
2022/05/14 00:17:38;;;;;;;;;;;;;;;11.12;67.35;101326.38;4995972;28;19913;-84
2022/05/14 00:20:04;;;;;;;;;;;;;;;11.13;68.06;101325.53;4996449;28;20312;-84
2022/05/14 00:22:29;;;;;;;;;;;;;;;11.12;68.01;101308.09;4996141;28;20426;-84
2022/05/14 00:24:54;;;;;;;;;;;;;;;11.09;68.50;101314.22;5012424;28;19916;-84
2022/05/14 00:27:22;;;;;;;;;;;;;;;11.10;68.92;101312.47;4996006;28;19932;-84
2022/05/14 00:29:47;;;;;;;;;;;;;;;11.07;68.79;101317.72;4996405;28;19909;-84
2022/05/14 00:32:12;;;;;;;;;;;;;;;11.09;69.11;101318.59;5012898;28;20411;-84
2022/05/14 00:34:37;;;;;;;;;;;;;;;11.07;68.54;101320.31;4996196;28;19913;-85
2022/05/14 00:37:02;;;;;;;;;;;;;;;11.09;69.14;101318.59;4996483;28;20024;-84
2022/05/14 00:39:28;;;;;;;;;;;;;;;11.08;68.86;101316.84;5013310;28;19960;-85
2022/05/14 00:41:53;;;;;;;;;;;;;;;11.05;68.97;101307.28;4996422;28;19924;-84
2022/05/14 00:44:19;;;;;;;;;;;;;;;11.07;68.77;101317.72;4995852;28;19913;-84
2022/05/14 00:46:48;;;;;;;;;;;;;;;11.07;69.65;101321.22;4995795;28;19924;-84
2022/05/14 00:49:14;;;;;;;;;;;;;;;11.04;68.84;101320.34;4995788;28;19956;-84
2022/05/14 00:51:41;;;;;;;;;;;;;;;11.01;68.82;101315.16;4995746;28;19947;-84
2022/05/14 00:54:11;;;;;;;;;;;;;;;10.99;69.56;101320.41;4996020;28;20009;-84
2022/05/14 00:56:38;;;;;;;;;;;;;;;11.04;69.60;101320.34;4995739;28;20008;-84
2022/05/14 00:59:08;;;;;;;;;;;;;;;11.05;69.58;101322.09;4995733;28;19909;-84
2022/05/14 01:01:33;;;;;;;;;;;;;;;11.03;69.37;101313.38;4995750;28;20472;-84
2022/05/14 01:03:59;;;;;;;;;;;;;;;11.01;69.46;101316.03;4995952;28;19952;-85
2022/05/14 01:06:24;;;;;;;;;;;;;;;11.01;70.34;101307.31;4995751;28;19924;-84
2022/05/14 01:08:49;;;;;;;;;;;;;;;10.99;69.46;101297.75;4996014;28;19916;-84
2022/05/14 01:11:14;;;;;;;;;;;;;;;11.01;70.07;101304.72;4999430;28;19909;-85
2022/05/14 01:13:40;;;;;;;;;;;;;;;11.01;70.44;101299.47;4999172;28;19914;-84
2022/05/14 01:16:05;;;;;;;;;;;;;;;11.03;70.62;101302.94;4999264;28;19924;-84
2022/05/14 01:18:32;;;;;;;;;;;;;;;11.06;70.23;101302.94;4999242;28;19910;-84
2022/05/14 01:20:59;;;;;;;;;;;;;;;11.00;70.31;101301.19;4999627;28;20292;-85
2022/05/14 01:26:30;;;;;;;;;;;;;;;11.01;70.84;101291.63;5016810;28;20011;-85
2022/05/14 01:28:59;;;;;;;;;;;;;;;11.04;70.81;101299.44;4999380;28;20304;-85
2022/05/14 01:31:25;;;;;;;;;;;;;;;11.02;71.04;101303.84;5015337;28;20357;-85
2022/05/14 01:33:50;;;;;;;;;;;;;;;10.94;71.25;101289.06;4998971;28;19914;-84
2022/05/14 01:36:15;;;;;;;;;;;;;;;10.94;71.83;101285.59;5015658;28;20017;-84
2022/05/14 01:38:41;;;;;;;;;;;;;;;10.90;71.63;101292.56;4998525;28;20343;-85
2022/05/14 01:41:06;;;;;;;;;;;;;;;10.89;72.00;101289.97;4998936;28;20404;-84
2022/05/14 01:43:31;;;;;;;;;;;;;;;10.90;71.68;101299.56;4998708;28;19910;-84
2022/05/14 01:45:57;;;;;;;;;;;;;;;10.89;71.66;101300.44;4998822;28;19957;-84
2022/05/14 01:48:22;;;;;;;;;;;;;;;10.90;72.25;101303.03;5015537;28;20384;-84
2022/05/14 01:50:47;;;;;;;;;;;;;;;10.90;71.95;101295.19;5015268;28;19909;-85
2022/05/14 01:53:12;;;;;;;;;;;;;;;10.82;72.20;101295.28;4998768;28;19916;-85
2022/05/14 01:55:37;;;;;;;;;;;;;;;10.81;72.30;101295.25;4998508;28;19924;-84
2022/05/14 01:58:36;;;;;;;;;;;;;;;10.80;72.99;101304.00;5014876;28;19910;-84
2022/05/14 02:00:48;;;;;;;;;;;;;;;10.75;72.72;101301.41;5015241;28;19909;-84
2022/05/14 02:03:13;;;;;;;;;;;;;;;10.78;72.99;101297.91;4998713;28;19996;-84
2022/05/14 02:05:39;;;;;;;;;;;;;;;10.82;72.77;101304.84;5015331;28;20280;-84
2022/05/14 02:08:04;;;;;;;;;;;;;;;10.81;73.21;101297.88;4998706;28;19909;-84
2022/05/14 02:10:29;;;;;;;;;;;;;;;10.82;73.20;101291.78;4998330;28;19909;-84
2022/05/14 02:12:54;;;;;;;;;;;;;;;10.81;72.71;101287.41;4998558;28;19910;-85
2022/05/14 02:15:19;;;;;;;;;;;;;;;10.81;72.58;101290.03;4998567;28;19927;-84
2022/05/14 02:17:45;;;;;;;;;;;;;;;10.77;72.97;101290.94;4998076;28;19909;-85
2022/05/14 02:20:10;;;;;;;;;;;;;;;10.73;73.72;101286.59;4998213;28;20120;-85
2022/05/14 02:22:36;;;;;;;;;;;;;;;10.74;73.25;101285.75;5015210;28;20012;-85
2022/05/14 02:25:01;;;;;;;;;;;;;;;10.68;74.08;101286.66;4998640;28;19940;-85
2022/05/14 02:27:26;;;;;;;;;;;;;;;10.67;73.28;101295.38;4998055;28;19909;-84
2022/05/14 02:29:53;;;;;;;;;;;;;;;10.69;73.85;101288.41;4998698;28;20341;-84
2022/05/14 02:32:19;;;;;;;;;;;;;;;10.69;73.97;101288.41;4997880;28;20401;-84
2022/05/14 02:34:44;;;;;;;;;;;;;;;10.64;73.76;101291.03;4997888;28;19920;-84
2022/05/14 02:37:09;;;;;;;;;;;;;;;10.65;74.33;101307.59;5014610;28;19945;-85
2022/05/14 02:39:35;;;;;;;;;;;;;;;10.61;74.04;101296.28;4998007;28;19910;-85
2022/05/14 02:42:00;;;;;;;;;;;;;;;10.62;74.28;101305.84;4997806;28;19921;-84
2022/05/14 02:44:25;;;;;;;;;;;;;;;10.61;74.23;101296.28;4997200;28;19910;-84
2022/05/14 02:46:50;;;;;;;;;;;;;;;10.60;74.37;101328.50;4998224;28;19909;-84
2022/05/14 02:49:15;;;;;;;;;;;;;;;10.55;74.55;101311.13;5014962;28;19974;-84
2022/05/14 02:51:41;;;;;;;;;;;;;;;10.51;74.46;101323.31;5016421;28;19916;-84
2022/05/14 02:54:06;;;;;;;;;;;;;;;10.51;74.97;101320.72;5013220;28;19913;-84
2022/05/14 02:56:31;;;;;;;;;;;;;;;10.52;75.05;101317.22;4996188;28;20335;-84
2022/05/14 02:59:08;;;;;;;;;;;;;;;10.51;75.06;101315.50;4996733;28;19948;-84
2022/05/14 03:01:34;;;;;;;;;;;;;;;10.55;74.64;101313.72;4998176;28;19916;-84
2022/05/14 03:04:00;;;;;;;;;;;;;;;10.58;75.22;101311.97;4996761;28;20015;-84
2022/05/14 03:06:25;;;;;;;;;;;;;;;10.58;75.23;101319.81;4996788;28;19913;-84
2022/05/14 03:08:51;;;;;;;;;;;;;;;10.56;75.07;101313.72;5013068;28;19968;-84
2022/05/14 03:11:16;;;;;;;;;;;;;;;10.49;75.12;101314.66;4996780;28;20008;-84
2022/05/14 03:13:41;;;;;;;;;;;;;;;10.49;75.22;101325.09;5013032;28;20011;-84
2022/05/14 03:16:07;;;;;;;;;;;;;;;10.51;75.51;101314.63;5012864;28;20423;-84
2022/05/14 03:18:32;;;;;;;;;;;;;;;10.49;75.22;101317.25;4996330;28;19909;-84
2022/05/14 03:20:58;;;;;;;;;;;;;;;10.42;74.69;101326.00;4996550;28;19944;-84
2022/05/14 03:23:23;;;;;;;;;;;;;;;10.39;75.68;101321.66;5013139;28;19913;-84
2022/05/14 03:25:48;;;;;;;;;;;;;;;10.37;75.57;101317.34;5012759;28;20369;-84
2022/05/14 03:28:14;;;;;;;;;;;;;;;10.38;75.67;101319.06;4995997;28;19913;-84
2022/05/14 03:30:39;;;;;;;;;;;;;;;10.34;75.43;101315.56;4996142;28;19909;-84
2022/05/14 03:33:04;;;;;;;;;;;;;;;10.30;75.67;101321.69;5012264;28;19910;-84
2022/05/14 03:35:29;;;;;;;;;;;;;;;10.25;76.23;101334.78;5013058;28;19967;-85
2022/05/14 03:37:54;;;;;;;;;;;;;;;10.21;76.53;101332.16;4997998;28;19909;-85
2022/05/14 03:40:20;;;;;;;;;;;;;;;10.19;76.26;101337.41;4996471;28;19909;-84
2022/05/14 03:42:45;;;;;;;;;;;;;;;10.20;77.00;101336.53;4996469;28;19960;-84
2022/05/14 03:45:10;;;;;;;;;;;;;;;10.23;76.82;101340.88;4996409;28;19936;-84
2022/05/14 03:47:35;;;;;;;;;;;;;;;10.19;76.97;101347.84;4996677;28;19955;-84
2022/05/14 03:50:01;;;;;;;;;;;;;;;10.14;76.84;101337.44;5012983;28;19909;-84
2022/05/14 03:52:26;;;;;;;;;;;;;;;10.10;77.53;101347.88;4996600;28;19910;-84
2022/05/14 03:54:51;;;;;;;;;;;;;;;10.09;77.18;101349.63;4996351;28;20276;-84
2022/05/14 03:57:16;;;;;;;;;;;;;;;10.12;76.96;101359.19;4995814;28;19909;-84
2022/05/14 03:59:42;;;;;;;;;;;;;;;10.11;77.40;101349.63;4996488;28;20357;-85
2022/05/14 04:02:07;;;;;;;;;;;;;;;10.11;77.07;101342.63;4995980;28;19981;-84
2022/05/14 04:04:32;;;;;;;;;;;;;;;10.04;77.83;101353.13;5012687;28;19909;-84
2022/05/14 04:06:58;;;;;;;;;;;;;;;10.04;77.90;101350.53;4995637;28;19917;-84
2022/05/14 04:09:23;;;;;;;;;;;;;;;10.02;78.26;101357.47;4996109;28;19953;-84
2022/05/14 04:11:48;;;;;;;;;;;;;;;10.03;78.09;101354.84;4996029;28;19966;-84
2022/05/14 04:14:14;;;;;;;;;;;;;;;10.09;77.91;101370.50;4996028;28;19920;-84
2022/05/14 04:16:39;;;;;;;;;;;;;;;10.10;78.11;101366.13;4996360;28;19909;-84
2022/05/14 04:19:04;;;;;;;;;;;;;;;10.10;78.04;101371.34;4995945;28;20289;-84
2022/05/14 04:21:30;;;;;;;;;;;;;;;10.12;78.32;101369.63;4996239;28;20288;-84
2022/05/14 04:23:55;;;;;;;;;;;;;;;10.15;78.04;101361.78;4996309;28;20289;-84
2022/05/14 04:26:22;;;;;;;;;;;;;;;10.17;78.02;101367.88;4996138;28;19936;-84
2022/05/14 04:28:47;;;;;;;;;;;;;;;10.17;78.79;101373.09;4996199;28;19916;-84
2022/05/14 04:31:13;;;;;;;;;;;;;;;10.23;78.28;101373.06;4996238;28;20007;-84
2022/05/14 04:33:38;;;;;;;;;;;;;;;10.29;78.12;101378.28;4996371;28;19959;-84
2022/05/14 04:36:04;;;;;;;;;;;;;;;10.31;78.17;101380.88;4996114;28;19916;-84
2022/05/14 04:38:29;;;;;;;;;;;;;;;10.30;78.19;101385.22;4995807;28;19935;-84
2022/05/14 04:40:54;;;;;;;;;;;;;;;10.31;78.26;101381.72;4996838;28;19910;-84
2022/05/14 04:43:19;;;;;;;;;;;;;;;10.35;78.30;101381.75;4996794;28;19960;-84
2022/05/14 04:45:45;;;;;;;;;;;;;;;10.39;78.06;101383.47;5016339;28;19968;-84
2022/05/14 04:48:11;;;;;;;;;;;;;;;10.37;78.77;101380.88;5015759;28;19913;-84
2022/05/14 04:50:36;;;;;;;;;;;;;;;10.38;78.35;101387.81;4999515;28;19916;-84
2022/05/14 04:53:01;;;;;;;;;;;;;;;10.43;78.86;101387.78;4999268;28;19909;-84
2022/05/14 04:55:26;;;;;;;;;;;;;;;10.48;78.38;101388.66;4999504;28;20004;-84
2022/05/14 04:57:52;;;;;;;;;;;;;;;10.56;78.04;101389.47;4999305;28;20426;-84
2022/05/14 05:00:17;;;;;;;;;;;;;;;10.57;77.92;101392.97;4999414;28;20369;-84
2022/05/14 05:05:27;;;;;;;;;;;;;;;10.70;77.60;101396.38;5016299;28;20016;-84
2022/05/14 05:07:53;;;;;;;;;;;;;;;10.76;77.59;101398.97;4998997;28;19909;-85
2022/05/14 05:10:18;;;;;;;;;;;;;;;10.86;77.69;101405.88;4999538;28;20015;-84
2022/05/14 05:12:43;;;;;;;;;;;;;;;10.87;77.85;101406.75;5015453;28;19916;-84
2022/05/14 05:15:09;;;;;;;;;;;;;;;10.87;77.83;101411.97;4999384;28;19917;-84
2022/05/14 05:17:34;;;;;;;;;;;;;;;10.89;77.66;101416.28;5015890;28;20016;-84
2022/05/14 05:19:59;;;;;;;;;;;;;;;10.83;77.83;101414.59;4999632;28;19917;-85
2022/05/14 05:22:24;;;;;;;;;;;;;;;10.85;77.91;101419.81;4999346;28;19913;-85
2022/05/14 05:24:49;;;;;;;;;;;;;;;10.84;78.20;101423.31;4999386;28;19909;-84
2022/05/14 05:27:15;;;;;;;;;;;;;;;10.88;77.90;101419.81;4999130;28;20262;-84
2022/05/14 05:29:40;;;;;;;;;;;;;;;10.90;78.26;101423.25;4999010;28;19925;-84
2022/05/14 05:32:05;;;;;;;;;;;;;;;10.94;77.74;101430.22;5015812;28;19952;-84
2022/05/14 05:34:31;;;;;;;;;;;;;;;10.99;77.32;101430.19;5015474;28;19967;-85
2022/05/14 05:36:56;;;;;;;;;;;;;;;10.96;77.93;101425.84;4999921;28;20071;-86
2022/05/14 05:39:21;;;;;;;;;;;;;;;10.99;78.55;101438.03;4999032;28;19971;-85
2022/05/14 05:41:46;;;;;;;;;;;;;;;11.04;78.56;101445.84;4999315;28;19910;-86
2022/05/14 05:44:12;;;;;;;;;;;;;;;11.07;78.53;101435.34;4999542;28;20274;-85
2022/05/14 05:46:37;;;;;;;;;;;;;;;11.01;78.24;101438.88;4999303;28;19963;-85
2022/05/14 05:49:04;;;;;;;;;;;;;;;11.01;77.78;101441.50;4998653;28;19996;-85
2022/05/14 05:51:30;;;;;;;;;;;;;;;11.05;78.10;101438.00;4998863;28;19916;-85
2022/05/14 05:56:51;;;;;;;;;;;;;;;11.18;77.84;101448.38;5014626;28;19940;-85
2022/05/14 05:59:18;;;;;;;;;;;;;;;11.15;77.33;101444.03;5014961;28;20000;-84
2022/05/14 06:01:43;;;;;;;;;;;;;;;11.11;78.29;101442.31;4998631;28;19925;-84
2022/05/14 06:04:08;;;;;;;;;;;;;;;11.15;77.98;101444.91;4998353;28;20356;-84
2022/05/14 06:06:34;;;;;;;;;;;;;;;11.15;77.51;101441.41;5014879;28;19909;-84
2022/05/14 06:08:59;;;;;;;;;;;;;;;11.21;78.04;101445.72;4998071;28;20152;-84
2022/05/14 06:11:30;;;;;;;;;;;;;;;11.25;77.93;101440.47;4998287;28;19936;-84
2022/05/14 06:13:56;;;;;;;;;;;;;;;11.30;77.43;101454.41;4998782;28;20003;-85
2022/05/14 06:16:21;;;;;;;;;;;;;;;11.35;77.56;101441.28;4998569;28;19992;-84
2022/05/14 06:18:46;;;;;;;;;;;;;;;11.40;77.28;101449.06;4998202;28;20349;-84
2022/05/14 06:21:12;;;;;;;;;;;;;;;11.41;77.10;101448.19;4999119;28;20339;-84
2022/05/14 06:23:37;;;;;;;;;;;;;;;11.46;77.53;101462.13;5014549;28;20420;-84
2022/05/14 06:26:02;;;;;;;;;;;;;;;11.51;76.82;101460.34;4999214;28;19916;-86
2022/05/14 06:28:27;;;;;;;;;;;;;;;11.54;76.29;101457.69;4999715;28;20005;-85
2022/05/14 06:30:53;;;;;;;;;;;;;;;11.58;76.71;101462.03;4999929;28;19910;-85
2022/05/14 06:33:18;;;;;;;;;;;;;;;11.58;76.44;101454.16;5015852;28;20358;-85
2022/05/14 06:35:44;;;;;;;;;;;;;;;11.61;77.12;101448.03;4999134;28;20396;-85
2022/05/14 06:38:09;;;;;;;;;;;;;;;11.60;76.03;101462.91;5015680;28;19917;-86
2022/05/14 06:40:34;;;;;;;;;;;;;;;11.63;77.09;101462.84;4998710;28;20296;-84
2022/05/14 06:43:00;;;;;;;;;;;;;;;11.60;76.49;101475.97;4998029;28;19955;-83
2022/05/14 06:45:25;;;;;;;;;;;;;;;11.60;77.09;101470.75;4997651;28;19909;-84
2022/05/14 06:47:50;;;;;;;;;;;;;;;11.63;77.37;101473.31;4997512;28;19909;-85
2022/05/14 06:50:15;;;;;;;;;;;;;;;11.72;76.83;101476.75;4997966;28;20391;-84
2022/05/14 06:52:42;;;;;;;;;;;;;;;11.76;76.03;101488.94;5014018;28;19910;-85
2022/05/14 06:55:07;;;;;;;;;;;;;;;11.82;76.11;101475.78;5013788;28;20379;-84
2022/05/14 06:57:33;;;;;;;;;;;;;;;11.84;75.74;101487.09;4997441;28;19910;-85
2022/05/14 06:59:58;;;;;;;;;;;;;;;11.89;75.32;101485.31;4998255;28;19918;-85
2022/05/14 07:02:23;;;;;;;;;;;;;;;11.96;75.62;101473.09;5013849;28;19948;-85
2022/05/14 07:07:33;;;;;;;;;;;;;;;12.00;74.55;101473.03;5014083;28;19936;-87
2022/05/14 07:09:59;;;;;;;;;;;;;;;12.08;74.59;101480.81;4996677;28;19914;-87
2022/05/14 07:12:25;;;;;;;;;;;;;;;12.09;74.65;101473.81;5013289;28;20004;-87
2022/05/14 07:14:50;;;;;;;;;;;;;;;12.09;74.48;101479.94;4997038;28;19960;-86
2022/05/14 07:17:17;;;;;;;;;;;;;;;12.09;75.46;101476.44;4996674;28;19913;-88
2022/05/14 07:19:42;;;;;;;;;;;;;;;12.13;75.02;101478.13;4996602;28;19952;-88
2022/05/14 07:22:11;;;;;;;;;;;;;;;12.19;74.10;101478.09;4996641;28;19920;-85
2022/05/14 07:24:36;;;;;;;;;;;;;;;12.30;73.61;101481.44;4997059;28;19917;-87
2022/05/14 07:27:03;;;;;;;;;;;;;;;12.44;73.89;101488.28;4996490;28;20361;-87
2022/05/14 07:29:29;;;;;;;;;;;;;;;12.49;73.16;101486.50;4998246;28;19910;-86
2022/05/14 07:31:54;;;;;;;;;;;;;;;12.49;73.31;101476.03;4997546;28;19909;-88
2022/05/14 07:34:19;;;;;;;;;;;;;;;12.53;73.16;101485.56;5000757;28;19913;-85
2022/05/14 07:36:50;;;;;;;;;;;;;;;12.52;73.63;101482.06;4996591;28;19909;-83
2022/05/14 07:39:15;;;;;;;;;;;;;;;12.68;73.25;101472.28;5012248;28;19909;-83
2022/05/14 07:41:41;;;;;;;;;;;;;;;12.75;71.48;101482.66;4995677;28;19909;-82
2022/05/14 07:44:06;;;;;;;;;;;;;;;12.89;71.92;101478.13;4995874;28;19924;-84
2022/05/14 07:46:32;;;;;;;;;;;;;;;12.88;71.84;101484.25;4995808;28;19909;-84
2022/05/14 07:48:58;;;;;;;;;;;;;;;12.93;69.74;101471.09;4996087;28;19913;-85
2022/05/14 07:51:23;;;;;;;;;;;;;;;13.05;69.62;101475.28;4995891;28;20004;-85
2022/05/14 07:53:48;;;;;;;;;;;;;;;13.15;68.81;101469.03;4996163;28;20049;-84
2022/05/14 07:56:14;;;;;;;;;;;;;;;13.18;67.71;101475.09;5012690;28;19916;-85
2022/05/14 07:58:40;;;;;;;;;;;;;;;13.14;68.95;101475.16;4995738;28;19914;-85
2022/05/14 08:01:05;;;;;;;;;;;;;;;13.26;67.79;101474.97;5012208;28;19935;-84
2022/05/14 08:03:30;;;;;;;;;;;;;;;13.31;67.35;101473.16;5012129;28;20012;-83
2022/05/14 08:05:56;;;;;;;;;;;;;;;13.33;67.28;101476.63;4995737;28;20011;-83
2022/05/14 08:08:21;;;;;;;;;;;;;;;13.40;67.17;101474.78;4995571;28;19917;-82
2022/05/14 08:10:49;;;;;;;;;;;;;;;13.48;66.83;101486.06;4996125;28;19909;-85
2022/05/14 08:13:16;;;;;;;;;;;;;;;13.50;65.38;101478.16;4995937;28;19909;-85
2022/05/14 08:15:41;;;;;;;;;;;;;;;13.47;66.62;101488.69;4996079;28;19983;-85
2022/05/14 08:18:07;;;;;;;;;;;;;;;13.53;66.14;101491.22;4996341;28;20357;-85
2022/05/14 08:20:32;;;;;;;;;;;;;;;13.52;63.99;101482.50;4999771;28;19972;-85
2022/05/14 08:25:41;;;;;;;;;;;;;;;13.89;62.93;101491.50;5015990;28;20048;-83
2022/05/14 08:28:06;;;;;;;;;;;;;;;13.97;63.01;101484.34;4999206;28;20381;-84
2022/05/14 08:30:32;;;;;;;;;;;;;;;13.92;62.97;101496.72;4998873;28;20285;-84
2022/05/14 08:32:58;;;;;;;;;;;;;;;13.87;63.02;101488.03;5015424;28;19967;-83
2022/05/14 08:35:23;;;;;;;;;;;;;;;13.81;61.02;101498.63;4999140;28;19917;-84
2022/05/14 08:37:49;;;;;;;;;;;;;;;13.87;62.75;101498.56;4998632;28;20367;-84
2022/05/14 08:40:17;;;;;;;;;;;;;;;14.02;62.59;101493.00;4998821;28;19956;-83
2022/05/14 08:42:43;;;;;;;;;;;;;;;14.19;61.63;101497.09;4998894;28;20286;-84
2022/05/14 08:45:10;;;;;;;;;;;;;;;14.34;60.77;101499.47;4998991;28;19935;-84
2022/05/14 08:47:39;;;;;;;;;;;;;;;14.33;60.63;101495.09;4998629;28;19960;-84
2022/05/14 08:50:05;;;;;;;;;;;;;;;14.17;62.11;101498.91;4999028;28;20043;-84
2022/05/14 08:52:30;;;;;;;;;;;;;;;14.05;62.03;101497.34;4998392;28;19957;-84
2022/05/14 08:54:57;;;;;;;;;;;;;;;14.13;62.85;101497.22;5014958;28;19913;-85
2022/05/14 08:57:41;;;;;;;;;;;;;;;14.29;61.23;101503.94;4997433;28;19910;-85
2022/05/14 09:00:06;;;;;;;;;;;;;;;14.41;60.53;101510.72;5016044;28;19909;-85
2022/05/14 09:02:33;;;;;;;;;;;;;;;14.41;59.63;101508.09;4998567;28;19917;-84
2022/05/14 09:05:04;;;;;;;;;;;;;;;14.42;57.90;101501.06;4998701;28;19932;-84
2022/05/14 09:07:29;;;;;;;;;;;;;;;14.35;58.83;101503.78;4998051;28;19921;-84
2022/05/14 09:09:55;;;;;;;;;;;;;;;14.61;59.87;101501.56;4998553;28;20399;-84
2022/05/14 09:12:25;;;;;;;;;;;;;;;14.70;60.02;101507.53;5014659;28;19914;-84
2022/05/14 09:14:55;;;;;;;;;;;;;;;14.65;60.02;101498.88;5014553;28;19920;-84
2022/05/14 09:17:21;;;;;;;;;;;;;;;14.59;60.39;101509.47;5014629;28;19953;-84
2022/05/14 09:19:46;;;;;;;;;;;;;;;14.55;59.46;101510.44;5015634;28;19964;-84
2022/05/14 09:22:30;;;;;;;;;;;;;;;14.50;59.58;101510.50;4999347;28;20008;-84
2022/05/14 09:25:02;;;;;;;;;;;;;;;14.68;59.20;101509.34;5015600;28;19936;-86
2022/05/14 09:27:37;;;;;;;;;;;;;;;14.75;59.24;101506.56;5014699;28;20431;-86
2022/05/14 09:30:04;;;;;;;;;;;;;;;14.74;58.11;101516.22;4997832;28;19910;-84
2022/05/14 09:32:31;;;;;;;;;;;;;;;14.59;57.88;101529.63;5014047;28;19914;-84
2022/05/14 09:35:11;;;;;;;;;;;;;;;14.39;58.04;101524.78;5014237;28;19914;-83
2022/05/14 09:37:36;;;;;;;;;;;;;;;14.37;57.70;101524.81;5013882;28;19949;-84
2022/05/14 09:40:08;;;;;;;;;;;;;;;14.41;58.26;101528.22;4997710;28;19917;-83
2022/05/14 09:43:00;;;;;;;;;;;;;;;14.41;61.45;101525.59;4997914;28;19913;-84
2022/05/14 09:45:35;;;;;;;;;;;;;;;14.41;58.67;101536.13;4984085;28;20337;-84
2022/05/14 09:48:08;;;;;;;;;;;;;;;14.34;58.04;101531.00;4997534;28;19910;-84
2022/05/14 09:50:33;;;;;;;;;;;;;;;14.45;59.40;101529.91;4998170;28;19910;-83
2022/05/14 09:53:00;;;;;;;;;;;;;;;14.69;56.75;101534.72;5014184;28;19964;-83
2022/05/14 09:55:37;;;;;;;;;;;;;;;14.70;58.26;101538.22;5014256;28;20369;-82
2022/05/14 09:58:15;;;;;;;;;;;;;;;14.78;57.87;101535.41;5014713;28;19910;-85
2022/05/14 10:00:51;;;;;;;;;;;;;;;14.70;58.48;101549.59;4997576;28;19956;-83
2022/05/14 10:03:29;;;;;;;;;;;;;;;14.63;58.53;101540.13;4997435;28;19924;-93
2022/05/14 10:06:15;;;;;;;;;;;;;;;14.61;60.38;101554.16;5011394;28;20301;-84
2022/05/14 10:09:04;;;;;;;;;;;;;;;14.61;60.27;101547.13;5013637;28;19910;-85
2022/05/14 10:11:44;;;;;;;;;;;;;;;14.96;56.79;101545.56;4988777;28;19910;-83
2022/05/14 10:14:27;;;;;;;;;;;;;;;14.99;57.27;101539.38;4993971;28;20007;-84
2022/05/14 10:17:09;;;;;;;;;;;;;;;15.17;57.65;101548.66;4994609;28;19933;-85
2022/05/14 10:19:49;;;;;;;;;;;;;;;15.03;57.79;101547.16;5010909;28;20000;-84
2022/05/14 10:26:44;;;;;;;;;;;;;;;14.94;58.31;101554.41;4993895;28;19913;-81
2022/05/14 10:27:58;;;;;;;;;;;;;;;14.99;58.59;101553.41;5007811;28;19917;-81
2022/05/14 10:30:27;;;;;;;;;;;;;;;15.23;56.58;101548.53;4993976;28;20274;-81
2022/05/14 10:32:54;;;;;;;;;;;;;;;15.33;57.26;101559.72;4993809;28;19932;-83
2022/05/14 10:35:27;;;;;;;;;;;;;;;15.38;54.20;101561.34;4992492;28;19956;-83
2022/05/14 10:38:04;;;;;;;;;;;;;;;15.36;54.26;101557.84;4993679;28;20036;-83
2022/05/14 10:40:34;;;;;;;;;;;;;;;15.53;54.23;101565.38;4994275;28;19999;-84
2022/05/14 10:43:07;;;;;;;;;;;;;;;15.52;53.19;101557.53;5011003;28;19913;-83
2022/05/14 10:45:32;;;;;;;;;;;;;;;15.74;54.81;101559.66;4994505;28;20316;-84
2022/05/14 10:48:17;;;;;;;;;;;;;;;15.68;55.98;101556.25;4995739;28;19928;-84
2022/05/14 10:50:43;;;;;;;;;;;;;;;15.56;55.65;101564.44;4994598;28;19953;-84
2022/05/14 10:53:08;;;;;;;;;;;;;;;15.46;56.37;101562.91;4994812;28;20262;-84
2022/05/14 10:55:35;;;;;;;;;;;;;;;15.29;56.91;101564.16;4994970;28;20012;-84
2022/05/14 10:58:04;;;;;;;;;;;;;;;15.25;57.82;101562.50;4994427;28;19918;-84
2022/05/14 11:00:29;;;;;;;;;;;;;;;15.24;55.89;101565.16;4994556;28;20008;-84
2022/05/14 11:03:00;;;;;;;;;;;;;;;15.10;57.56;101560.22;4996908;28;19948;-85
2022/05/14 11:05:26;;;;;;;;;;;;;;;15.07;57.27;101568.19;4995654;28;19910;-85
2022/05/14 11:07:52;;;;;;;;;;;;;;;15.18;56.72;101569.66;4994239;28;19910;-84
2022/05/14 11:10:18;;;;;;;;;;;;;;;15.25;57.82;101580.91;4995431;28;19916;-86
2022/05/14 11:12:44;;;;;;;;;;;;;;;15.49;55.90;101576.03;5012118;28;20406;-86
2022/05/14 11:15:21;;;;;;;;;;;;;;;15.55;56.33;101575.88;5011284;28;19918;-84
2022/05/14 11:17:46;;;;;;;;;;;;;;;15.66;57.04;101587.03;4994107;28;19948;-85
2022/05/14 11:20:12;;;;;;;;;;;;;;;15.92;55.42;101577.66;4994446;28;19917;-84
2022/05/14 11:22:39;;;;;;;;;;;;;;;15.74;55.32;101591.25;4994594;28;19913;-84
2022/05/14 11:25:12;;;;;;;;;;;;;;;15.54;55.11;101589.94;4994676;28;20008;-84
2022/05/14 11:27:38;;;;;;;;;;;;;;;15.37;54.66;101593.81;4994360;28;19933;-86
2022/05/14 11:30:08;;;;;;;;;;;;;;;15.27;57.52;101597.56;5010561;28;20437;-86
2022/05/14 11:32:46;;;;;;;;;;;;;;;15.46;55.15;101603.28;4994686;28;19910;-86
2022/05/14 11:35:12;;;;;;;;;;;;;;;15.51;55.71;101606.66;4993926;28;19917;-84
2022/05/14 11:37:38;;;;;;;;;;;;;;;15.45;56.25;101606.81;4993376;28;20011;-86
2022/05/14 11:40:13;;;;;;;;;;;;;;;15.32;57.26;101605.34;4995226;28;20057;-86
2022/05/14 11:42:38;;;;;;;;;;;;;;;15.34;57.00;101604.41;4994395;28;20010;-85
2022/05/14 11:45:05;;;;;;;;;;;;;;;15.52;56.88;101602.28;4993624;28;20398;-86
2022/05/14 11:47:39;;;;;;;;;;;;;;;15.63;57.33;101602.91;4993080;28;19996;-88
2022/05/14 11:50:04;;;;;;;;;;;;;;;15.65;56.27;101603.75;4994401;28;19917;-87
2022/05/14 11:52:49;;;;;;;;;;;;;;;15.59;55.70;101613.56;4993818;28;19910;-86
2022/05/14 11:55:17;;;;;;;;;;;;;;;15.83;56.00;101607.75;4994541;28;19929;-86
2022/05/14 11:57:45;;;;;;;;;;;;;;;16.00;54.45;101604.69;4997710;28;19960;-86
2022/05/14 12:00:13;;;;;;;;;;;;;;;16.14;54.75;101606.13;4995193;28;19914;-86
2022/05/14 12:02:52;;;;;;;;;;;;;;;16.14;54.67;101611.41;5012383;28;20012;-86
2022/05/14 12:05:17;;;;;;;;;;;;;;;16.05;54.32;101618.63;4996493;28;19931;-87
2022/05/14 12:07:50;;;;;;;;;;;;;;;15.84;55.11;101624.41;5012867;28;20365;-87
2022/05/14 12:10:21;;;;;;;;;;;;;;;15.59;54.97;101619.66;4999272;28;19909;-87
2022/05/14 12:12:53;;;;;;;;;;;;;;;15.40;56.79;101623.63;5021981;28;19909;-87
2022/05/14 12:15:21;;;;;;;;;;;;;;;15.33;57.49;101622.88;4996873;28;19920;-87
2022/05/14 12:17:54;;;;;;;;;;;;;;;15.43;57.36;101620.91;4998072;28;19940;-87
2022/05/14 12:20:20;;;;;;;;;;;;;;;15.74;57.69;101628.13;4997477;28;19980;-88
2022/05/14 12:22:59;;;;;;;;;;;;;;;16.24;54.08;101639.25;4997108;28;19920;-87
2022/05/14 12:25:34;;;;;;;;;;;;;;;16.36;52.76;101631.03;4997241;28;20327;-87
2022/05/14 12:28:00;;;;;;;;;;;;;;;16.39;52.18;101622.19;4997866;28;19920;-88
2022/05/14 12:33:13;;;;;;;;;;;;;;;16.92;54.31;101624.34;5015320;28;20019;-88
2022/05/14 12:35:41;;;;;;;;;;;;;;;16.94;52.87;101625.13;4996795;28;20416;-87
2022/05/14 12:38:08;;;;;;;;;;;;;;;16.92;51.99;101631.38;4997115;28;19909;-87
2022/05/14 12:40:35;;;;;;;;;;;;;;;16.98;51.64;101623.28;4996214;28;19909;-91
2022/05/14 12:43:00;;;;;;;;;;;;;;;17.27;52.41;101614.50;4997828;28;19920;-87
2022/05/14 12:45:39;;;;;;;;;;;;;;;17.51;52.16;101605.00;4995539;28;19909;-87
2022/05/14 12:48:04;;;;;;;;;;;;;;;17.59;51.31;101612.69;4995671;28;20296;-87
2022/05/14 12:50:33;;;;;;;;;;;;;;;17.29;50.75;101620.63;4996516;28;19913;-88
2022/05/14 12:53:08;;;;;;;;;;;;;;;17.02;53.21;101617.00;4996071;28;19910;-87
2022/05/14 12:55:39;;;;;;;;;;;;;;;16.74;51.37;101628.28;4996780;28;19939;-86
2022/05/14 12:58:05;;;;;;;;;;;;;;;16.59;52.45;101640.13;4995821;28;19909;-87